Terminal Aerodrome Forecast
Issued by NWS Melbourne, FL

Home | Current Version | Previous Version | Text Only | Print | Product List | Glossary On
Versions: 1 2 3 4 5 6 7 8 9 10 11 12
393
FTUS42 KMLB 220539
TAFMLB
TAF
KMLB 220539Z 2206/2306 18005KT P6SM SCT250
     FM221300 20013G22KT P6SM SCT025 BKN250
     FM221700 21020G28KT P6SM SCT040 BKN150
      TEMPO 2300/2302 25020G40KT 2SM +TSRA BKN015CB
     FM230200 20018G28KT P6SM -RA VCTS BKN035CB=

USA.gov is the U.S. government's official web portal to all federal, state and local government web resources and services.